Data for 03/09/2008

Time Sea-Level Adjusted Pressure Absolute Pressure Temperature Relative Humidity Dew Point   
(mb) (inHg) (mb) (inHg) (C) (F) (%) (C) (F)
00:05 1021 30.15 850 25.1 2.8 37 63 -3.5 25.8
00:10 1021 30.15 850 25.1 2.8 37.1 62 -3.7 25.4
00:15 1021 30.15 850 25.1 2.8 37 62 -3.7 25.3
00:20 1021 30.15 850 25.1 2.8 37.1 63 -3.6 25.5
00:25 1021 30.15 850 25.1 2.7 36.9 63 -3.6 25.5
00:30 1021 30.15 850 25.1 2.7 36.8 63 -3.6 25.4
00:35 1021 30.15 850 25.1 2.7 36.8 63 -3.6 25.5
00:40 1021 30.15 850 25.1 2.6 36.7 63 -3.6 25.5
00:45 1021 30.15 850 25.1 2.6 36.7 64 -3.5 25.6
00:50 1021 30.15 850 25.1 2.5 36.5 64 -3.6 25.6
00:55 1021 30.15 850 25.1 2.5 36.4 65 -3.5 25.7
01:00 1021 30.15 850 25.1 2.3 36.2 66 -3.4 25.8
01:05 1021 30.15 850 25.1 2.3 36.1 66 -3.3 26
01:10 1021 30.15 850 25.1 2.3 36.2 66 -3.3 26.1
01:15 1021 30.15 850 25.1 2.2 36 67 -3.3 26
01:20 1021 30.15 850 25.1 2.2 36 66 -3.4 25.9
01:25 1021 30.15 850 25.1 2.3 36.2 66 -3.3 26
01:30 1021 30.15 850 25.1 2.3 36.2 67 -3.3 26.1
01:35 1021 30.15 850 25.1 2.3 36.2 66 -3.3 26.1
01:40 1021 30.15 850 25.1 2.3 36.1 66 -3.3 26
01:45 1021 30.15 850 25.1 2.3 36.1 66 -3.4 25.9
01:50 1021 30.15 850 25.1 2.3 36.1 66 -3.4 25.9
01:55 1021 30.15 850 25.1 2.2 36 66 -3.4 25.9
03:00 1021 30.15 850 25.1 2.3 36.1 66 -3.4 25.8
03:05 1021 30.15 850 25.1 2.3 36.2 66 -3.4 25.8
03:10 1021 30.15 850 25.1 2.3 36.2 66 -3.4 25.8
03:15 1021 30.15 850 25.1 2.3 36.2 66 -3.4 25.9
03:20 1021 30.15 850 25.1 2.4 36.3 66 -3.4 25.9
03:25 1021 30.15 850 25.1 2.4 36.3 66 -3.3 26
03:30 1021 30.15 850 25.1 2.3 36.2 66 -3.4 26
03:35 1021 30.15 850 25.1 2.3 36.1 66 -3.4 26
03:40 1021 30.15 850 25.1 2.3 36.1 66 -3.3 26
03:45 1021 30.15 850 25.1 2.3 36.1 67 -3.3 26.1
03:50 1021 30.15 850 25.1 2.1 35.8 67 -3.3 26.1
03:55 1021 30.15 850 25.1 2.1 35.8 68 -3.2 26.3
04:00 1021 30.15 850 25.1 2 35.7 69 -3.1 26.4
04:05 1021 30.15 850 25.1 1.9 35.5 69 -3.2 26.2
04:10 1021 30.15 850 25.1 2.1 35.8 68 -3.2 26.2
04:15 1021 30.15 850 25.1 2.2 36 67 -3.2 26.2
04:20 1021 30.15 850 25.1 2.2 36 68 -3.1 26.5
04:25 1021 30.15 850 25.1 2.2 36 67 -3.2 26.2
04:30 1021 30.15 850 25.1 2.3 36.1 67 -3.2 26.2
04:35 1021 30.15 851 25.13 2.3 36.1 67 -3.2 26.2
04:40 1021 30.15 851 25.13 2.2 36 67 -3.2 26.2
04:45 1021 30.15 851 25.13 1.9 35.5 69 -3.1 26.4
04:50 1021 30.15 851 25.13 2 35.6 69 -3.2 26.3
04:55 1021 30.15 851 25.13 2.1 35.7 68 -3.2 26.3
05:00 1022 30.18 851 25.13 2.2 35.9 68 -3.2 26.3
05:05 1022 30.18 851 25.13 2.2 36 68 -3.1 26.3
05:10 1022 30.18 851 25.13 2.2 36 67 -3.2 26.3
05:15 1022 30.18 851 25.13 2.3 36.1 67 -3.3 26.1
05:20 1022 30.18 851 25.13 2.4 36.4 66 -3.2 26.2
05:25 1022 30.18 851 25.13 2.4 36.4 66 -3.3 26.1
05:30 1022 30.18 851 25.13 2.5 36.4 66 -3.3 26
05:35 1022 30.18 851 25.13 2.5 36.4 66 -3.3 26
05:40 1022 30.18 851 25.13 2.5 36.5 66 -3.3 26.1
05:45 1022 30.18 851 25.13 2.5 36.6 66 -3.2 26.2
05:50 1022 30.18 851 25.13 2.5 36.6 66 -3.2 26.2
05:55 1022 30.18 851 25.13 2.5 36.5 66 -3.1 26.3
06:00 1022 30.18 851 25.13 2.5 36.5 67 -3.1 26.5
06:05 1022 30.18 851 25.13 2.4 36.3 67 -3.1 26.5
06:10 1022 30.18 851 25.13 2.4 36.2 67 -3 26.5
06:15 1022 30.18 851 25.13 2.3 36.1 68 -3.1 26.4
06:20 1022 30.18 851 25.13 2.4 36.3 67 -3 26.5
06:25 1022 30.18 851 25.13 2.4 36.3 67 -3.1 26.5
06:30 1022 30.18 851 25.13 2.4 36.3 68 -3 26.6
06:35 1022 30.18 851 25.13 2.4 36.2 68 -3 26.6
06:40 1022 30.18 851 25.13 2.3 36.1 68 -3 26.5
06:45 1022 30.18 852 25.16 2.3 36.1 68 -3.1 26.5
06:50 1022 30.18 852 25.16 2.3 36.1 68 -3 26.7
06:55 1022 30.18 852 25.16 2.3 36.2 69 -2.8 27
07:00 1022 30.18 852 25.16 2.4 36.3 69 -2.7 27.1
07:05 1022 30.18 852 25.16 2.3 36.2 69 -2.7 27.1
07:10 1022 30.18 852 25.16 2.2 36 70 -2.7 27.2
07:15 1022 30.18 852 25.16 2.1 35.7 71 -2.7 27.1
07:20 1023 30.21 852 25.16 2 35.5 71 -2.8 27
07:25 1023 30.21 852 25.16 2 35.6 71 -2.8 27
07:30 1023 30.21 852 25.16 2.1 35.7 70 -2.8 27
07:35 1023 30.21 852 25.16 2.1 35.7 70 -2.9 26.8
07:40 1023 30.21 852 25.16 2.1 35.9 70 -2.8 26.9
07:45 1023 30.21 852 25.16 1.8 35.3 71 -2.9 26.9
07:50 1023 30.21 852 25.16 1.4 34.5 72 -3.2 26.3
07:55 1023 30.21 852 25.16 1.5 34.6 72 -3.1 26.5
08:00 1023 30.21 852 25.16 1.7 35 71 -3 26.5
08:05 1023 30.21 852 25.16 1.8 35.2 70 -3 26.6
08:10 1023 30.21 852 25.16 1.8 35.2 71 -2.9 26.8
08:15 1023 30.21 852 25.16 1.6 34.8 72 -2.9 26.8
08:20 1023 30.21 852 25.16 1.4 34.5 74 -2.8 26.9
08:25 1023 30.21 852 25.16 1.2 34.2 74 -3 26.7
08:30 1023 30.21 852 25.16 1.2 34.1 75 -2.9 26.9
08:35 1023 30.21 852 25.16 1.3 34.4 73 -2.9 26.8
08:40 1023 30.21 852 25.16 1.4 34.5 73 -2.9 26.7
08:45 1023 30.21 852 25.16 1.2 34.2 73 -3 26.6
08:50 1023 30.21 852 25.16 1.1 34.1 74 -3 26.6
08:55 1023 30.21 852 25.16 1.1 34 74 -3 26.5
09:00 1023 30.21 852 25.16 1.2 34.2 74 -3 26.7
09:05 1023 30.21 852 25.16 1.2 34.2 74 -2.9 26.7
09:10 1023 30.21 852 25.16 1.3 34.3 74 -2.9 26.7
09:15 1023 30.21 852 25.16 1.3 34.4 73 -3 26.7
09:20 1023 30.21 852 25.16 1.5 34.7 73 -2.9 26.7
09:25 1023 30.21 852 25.16 1.7 35 72 -2.9 26.8
09:30 1023 30.21 852 25.16 1.8 35.3 71 -2.9 26.7
09:35 1023 30.21 852 25.16 2 35.5 70 -3 26.6
09:40 1023 30.21 852 25.16 2 35.6 70 -3 26.7
09:45 1023 30.21 852 25.16 2.1 35.8 69 -2.9 26.8
09:50 1023 30.21 852 25.16 2.3 36.1 68 -2.9 26.7
09:55 1023 30.21 852 25.16 2.4 36.3 68 -3 26.6
10:00 1023 30.21 852 25.16 2.4 36.3 68 -2.9 26.7
10:05 1023 30.21 852 25.16 2.3 36.2 68 -3 26.6
10:10 1023 30.21 852 25.16 2.3 36.1 67 -3.2 26.3
10:15 1023 30.21 852 25.16 2.4 36.3 67 -3.2 26.2
10:20 1023 30.21 852 25.16 2.5 36.4 66 -3.2 26.2
10:25 1023 30.21 852 25.16 2.6 36.7 66 -3.1 26.4
10:30 1023 30.21 852 25.16 2.8 37 65 -3.2 26.2
10:35 1023 30.21 852 25.16 2.9 37.1 64 -3.3 26.1
10:40 1023 30.21 852 25.16 3 37.4 64 -3.2 26.2
10:45 1023 30.21 852 25.16 3.2 37.7 62 -3.5 25.8
10:50 1023 30.21 852 25.16 3.2 37.8 62 -3.4 25.9
10:55 1023 30.21 852 25.16 3.2 37.7 62 -3.4 25.9
11:00 1023 30.21 852 25.16 3.4 38.1 62 -3.3 26.1
11:05 1023 30.21 852 25.16 3.7 38.7 59 -3.6 25.5
11:10 1023 30.21 852 25.16 4 39.2 58 -3.5 25.7
11:15 1023 30.21 852 25.16 4.2 39.6 55 -3.9 24.9
11:20 1023 30.21 852 25.16 4.5 40.1 54 -4.1 24.7
11:25 1023 30.21 852 25.16 4.7 40.4 52 -4.4 24.1
11:30 1023 30.21 852 25.16 4.6 40.3 54 -3.9 25
11:35 1023 30.21 852 25.16 5.1 41.2 52 -3.8 25.1
11:40 1023 30.21 852 25.16 5.6 42.1 50 -4 24.9
11:45 1023 30.21 852 25.16 6 42.8 48 -4.1 24.6
11:50 1023 30.21 853 25.19 5.5 42 50 -4.2 24.5
11:55 1023 30.21 852 25.16 5.6 42.2 49 -4.2 24.5
12:00 1023 30.21 852 25.16 6.3 43.4 48 -3.9 25
12:05 1023 30.21 852 25.16 7 44.6 44 -4.3 24.3
12:10 1023 30.21 853 25.19 6.7 44.1 45 -4.4 24.1
12:15 1023 30.21 853 25.19 6.8 44.3 45 -4.3 24.3
12:20 1023 30.21 852 25.16 7.2 44.9 44 -4.1 24.6
12:25 1023 30.21 852 25.16 7.6 45.7 43 -4.3 24.3
12:30 1023 30.21 852 25.16 7.3 45.2 44 -4.1 24.7
12:35 1023 30.21 852 25.16 7.3 45.1 43 -4.5 23.9
12:40 1023 30.21 852 25.16 7.6 45.8 43 -4.2 24.5
12:45 1023 30.21 852 25.16 8.6 47.4 40 -4.4 24.1
12:50 1023 30.21 852 25.16 8.5 47.3 40 -4.2 24.5
12:55 1023 30.21 852 25.16 8.1 46.5 41 -4.3 24.2
13:00 1023 30.21 852 25.16 7.9 46.2 41 -4.5 23.8
13:05 1023 30.21 852 25.16 7.8 46 41 -4.6 23.7
13:10 1023 30.21 852 25.16 7.8 46.1 41 -4.6 23.8
13:15 1023 30.21 852 25.16 7.5 45.4 42 -4.5 23.8
13:20 1023 30.21 852 25.16 7.2 44.9 43 -4.5 23.8
13:25 1023 30.21 852 25.16 7.7 45.9 42 -4.3 24.3
13:30 1023 30.21 852 25.16 7.8 46.1 41 -4.5 23.8
13:35 1023 30.21 852 25.16 7.7 45.8 43 -4.1 24.6
13:40 1023 30.21 852 25.16 7.7 45.9 43 -4.2 24.5
13:45 1023 30.21 852 25.16 7.7 45.9 42 -4.3 24.2
13:50 1023 30.21 852 25.16 8 46.5 41 -4.4 24.1
13:55 1023 30.21 852 25.16 7.8 46 43 -4 24.7
14:00 1023 30.21 852 25.16 6.7 44 45 -4.5 23.8
14:05 1023 30.21 852 25.16 7.1 44.7 44 -4.4 24
14:10 1023 30.21 852 25.16 7.9 46.2 42 -4.4 24.2
14:15 1023 30.21 852 25.16 7.9 46.3 41 -4.5 23.9
14:20 1023 30.21 852 25.16 9.3 48.7 36 -5 23.1
14:25 1023 30.21 852 25.16 8.8 47.9 40 -4.1 24.6
14:30 1023 30.21 852 25.16 8.9 48.1 38 -4.6 23.8
14:35 1023 30.21 852 25.16 8.8 47.8 38 -4.8 23.3
14:40 1023 30.21 852 25.16 8.5 47.2 39 -4.6 23.8
14:45 1023 30.21 852 25.16 7.6 45.6 42 -4.5 24
14:50 1023 30.21 852 25.16 6.8 44.3 41 -5.4 22.3
14:55 1023 30.21 852 25.16 7 44.7 43 -4.8 23.4
15:00 1023 30.21 852 25.16 8 46.3 41 -4.6 23.7
15:05 1023 30.21 852 25.16 7.9 46.2 38 -5.4 22.3
15:10 1023 30.21 852 25.16 8.1 46.7 37 -5.8 21.6
15:15 1023 30.21 852 25.16 8.5 47.3 37 -5.5 22.1
15:20 1023 30.21 852 25.16 8.9 47.9 35 -5.7 21.8
15:25 1023 30.21 852 25.16 9.7 49.4 33 -5.8 21.5
15:30 1023 30.21 852 25.16 9.5 49.1 34 -5.6 21.9
15:35 1023 30.21 852 25.16 9.2 48.6 34 -5.8 21.6
15:40 1023 30.21 852 25.16 8.7 47.6 37 -5.3 22.5
15:45 1023 30.21 852 25.16 8.7 47.6 36 -5.6 21.9
15:50 1023 30.21 852 25.16 8.4 47.2 37 -5.6 22
15:55 1023 30.21 852 25.16 8.7 47.7 35 -6.1 21.1
16:00 1023 30.21 852 25.16 8.3 47 34 -6.6 20.2
16:05 1023 30.21 852 25.16 8.6 47.5 34 -6.3 20.7
16:10 1023 30.21 852 25.16 8.1 46.6 37 -5.7 21.7
16:15 1023 30.21 852 25.16 8.5 47.3 34 -6.4 20.6
16:20 1023 30.21 852 25.16 8.7 47.6 35 -5.8 21.6
16:25 1023 30.21 852 25.16 9.9 49.8 31 -6.3 20.6
16:30 1023 30.21 852 25.16 9.7 49.4 33 -6 21.2
16:35 1023 30.21 852 25.16 9.7 49.5 32 -6 21.1
16:40 1023 30.21 852 25.16 10 50 31 -6.5 20.2
16:45 1023 30.21 852 25.16 9.4 48.8 31 -6.9 19.5
16:50 1023 30.21 852 25.16 8.7 47.6 32 -7.1 19.3
16:55 1023 30.21 852 25.16 8.9 48.1 33 -6.5 20.3
17:00 1023 30.21 852 25.16 8.7 47.7 34 -6.1 21
17:05 1023 30.21 852 25.16 9.5 49.1 32 -6.4 20.5
17:10 1023 30.21 852 25.16 9.5 49.1 32 -6.3 20.6
17:15 1023 30.21 852 25.16 9.6 49.3 31 -6.6 20.1
17:20 1023 30.21 852 25.16 9.7 49.4 30 -7 19.4
17:25 1023 30.21 852 25.16 9.6 49.2 30 -7.2 19.1
17:30 1023 30.21 852 25.16 9.2 48.6 33 -6.1 21
17:35 1023 30.21 852 25.16 9 48.2 33 -6.5 20.3
17:40 1023 30.21 852 25.16 8.5 47.3 34 -6.5 20.3
17:45 1022 30.18 852 25.16 8.5 47.2 33 -6.9 19.5
17:50 1022 30.18 852 25.16 8.6 47.4 33 -6.8 19.8
17:55 1022 30.18 852 25.16 8.5 47.4 31 -7.5 18.5
18:00 1022 30.18 852 25.16 8.8 47.8 32 -6.9 19.6
18:05 1022 30.18 852 25.16 8.6 47.4 31 -7.4 18.7
18:10 1022 30.18 852 25.16 9.3 48.7 31 -7.2 19
18:15 1022 30.18 852 25.16 9.6 49.3 30 -7.1 19.2
18:20 1022 30.18 852 25.16 9.4 48.9 30 -7.4 18.8
18:25 1022 30.18 852 25.16 8.8 47.8 33 -6.6 20.1
18:30 1022 30.18 852 25.16 8.8 47.9 33 -6.5 20.3
18:35 1022 30.18 852 25.16 8.5 47.2 34 -6.5 20.3
18:40 1022 30.18 852 25.16 8.1 46.5 34 -6.8 19.8
18:45 1022 30.18 852 25.16 7.7 45.9 34 -7.2 19.1
18:50 1022 30.18 852 25.16 8.2 46.7 33 -7.3 18.9
18:55 1023 30.21 852 25.16 8.2 46.7 32 -7.5 18.6
19:00 1023 30.21 852 25.16 8 46.3 33 -7.3 18.8
19:05 1023 30.21 852 25.16 7.1 44.8 35 -7.3 18.8
19:10 1023 30.21 852 25.16 6.3 43.3 36 -7.7 18.2
19:15 1022 30.18 852 25.16 6.2 43.2 37 -7.4 18.6
19:20 1022 30.18 852 25.16 6.4 43.5 37 -7.2 19
19:25 1022 30.18 852 25.16 6.3 43.3 38 -7.1 19.2
19:30 1022 30.18 852 25.16 6 42.8 40 -6.6 20.1
19:35 1022 30.18 852 25.16 5.2 41.3 45 -5.8 21.5
19:40 1022 30.18 852 25.16 4.4 39.9 47 -6 21.2
19:45 1022 30.18 852 25.16 4 39.2 49 -5.9 21.4
19:50 1022 30.18 852 25.16 3.8 38.9 49 -5.9 21.3
19:55 1022 30.18 852 25.16 3.7 38.6 49 -6 21.3
20:00 1022 30.18 852 25.16 3.2 37.8 50 -6.1 21.1
20:05 1022 30.18 852 25.16 3 37.4 51 -6.2 20.9
20:10 1022 30.18 852 25.16 2.7 36.9 52 -6.1 21
20:15 1022 30.18 852 25.16 2.4 36.3 53 -6.3 20.7
20:20 1022 30.18 852 25.16 2.2 36 53 -6.4 20.4
20:25 1022 30.18 852 25.16 2.2 35.9 53 -6.3 20.6
20:30 1022 30.18 852 25.16 2 35.6 54 -6.4 20.5
20:35 1022 30.18 852 25.16 1.8 35.3 54 -6.5 20.4
20:40 1022 30.18 852 25.16 1.7 35.1 55 -6.4 20.4
20:45 1022 30.18 852 25.16 1.5 34.6 56 -6.4 20.6
20:50 1022 30.18 852 25.16 1.2 34.2 57 -6.3 20.6
20:55 1022 30.18 852 25.16 1.2 34.2 57 -6.3 20.6
21:00 1022 30.18 852 25.16 1.1 33.9 58 -6.2 20.8
21:05 1022 30.18 852 25.16 0.9 33.5 59 -6.3 20.7
21:10 1022 30.18 852 25.16 0.7 33.3 59 -6.4 20.5
21:15 1023 30.21 852 25.16 0.7 33.3 58 -6.5 20.2
21:20 1023 30.21 852 25.16 0.9 33.6 57 -6.6 20.1
21:25 1023 30.21 852 25.16 0.9 33.7 57 -6.6 20.1
21:30 1023 30.21 852 25.16 1 33.8 57 -6.7 19.9
21:35 1023 30.21 852 25.16 0.9 33.6 57 -6.7 19.9
21:40 1023 30.21 852 25.16 0.8 33.4 57 -6.8 19.7
21:45 1023 30.21 852 25.16 0.8 33.5 56 -6.9 19.5
21:50 1023 30.21 852 25.16 0.9 33.6 55 -7 19.3
21:55 1023 30.21 852 25.16 1.2 34.2 53 -7.3 18.9
22:00 1023 30.21 852 25.16 1.5 34.7 52 -7.3 18.8
22:05 1023 30.21 852 25.16 1.6 34.8 51 -7.4 18.6
22:10 1023 30.21 852 25.16 1.6 34.9 51 -7.5 18.5
22:15 1023 30.21 852 25.16 1.6 35 50 -7.6 18.3
22:20 1023 30.21 852 25.16 1.7 35.1 50 -7.7 18.2
22:25 1023 30.21 852 25.16 1.7 35.1 50 -7.7 18.1
22:30 1023 30.21 852 25.16 1.7 35 49 -7.8 18
22:35 1023 30.21 852 25.16 1.6 34.9 50 -7.8 17.9
22:40 1023 30.21 852 25.16 1.6 34.8 50 -7.9 17.8
22:45 1023 30.21 852 25.16 1.5 34.6 50 -7.9 17.8
22:50 1023 30.21 852 25.16 1.4 34.5 49 -8.1 17.5
22:55 1023 30.21 852 25.16 1.4 34.5 50 -8 17.6
23:00 1023 30.21 852 25.16 1.4 34.6 49 -8 17.5
23:05 1023 30.21 852 25.16 1.5 34.7 51 -7.6 18.3
23:10 1023 30.21 852 25.16 1.5 34.7 51 -7.7 18.1
23:15 1023 30.21 852 25.16 1.5 34.6 51 -7.5 18.4
23:20 1023 30.21 852 25.16 1.6 34.8 49 -7.9 17.7
23:25 1023 30.21 852 25.16 1.9 35.4 48 -7.9 17.7
23:30 1023 30.21 852 25.16 2 35.6 47 -8 17.5
23:35 1023 30.21 852 25.16 1.9 35.4 48 -7.9 17.8
23:40 1023 30.21 852 25.16 1.9 35.4 47 -8.2 17.2
23:45 1023 30.21 852 25.16 2 35.6 47 -8.2 17.2
23:50 1023 30.21 852 25.16 1.8 35.2 48 -8 17.5
23:55 1023 30.21 852 25.16 1.5 34.6 47 -8.6 16.6
24:00 1023 30.21 852 25.16 1.8 35.2 47 -8.3 17.1